Time;durP1;ratioP1;P1;durP2;ratioP2;P2;SDS_P1;SDS_P2;PMS_P1;PMS_P2;Temp;Humidity;BMP_temperature;BMP_pressure;BME280_temperature;BME280_humidity;BME280_pressure;Samples;Min_cycle;Max_cycle;Signal;HPM_P1;HPM_P2
2021/07/17 00:00:28;;;;;;;18.30;7.57;;;19.70;99.90;;;;;;5015443;28;20443;-88
2021/07/17 00:02:53;;;;;;;20.20;8.23;;;19.70;99.90;;;;;;5027175;28;20111;-89
2021/07/17 00:05:19;;;;;;;17.27;7.35;;;19.70;99.90;;;;;;5019186;28;20109;-89
2021/07/17 00:07:46;;;;;;;16.52;6.97;;;19.60;99.90;;;;;;5035847;28;20075;-89
2021/07/17 00:10:21;;;;;;;12.98;6.53;;;19.70;99.90;;;;;;5035506;28;20152;-88
2021/07/17 00:12:48;;;;;;;15.52;6.72;;;19.60;99.90;;;;;;5035507;28;20025;-88
2021/07/17 00:15:16;;;;;;;15.50;6.75;;;19.60;99.90;;;;;;5021427;28;20108;-88
2021/07/17 00:17:43;;;;;;;16.30;6.72;;;19.60;99.90;;;;;;5053968;28;20052;-88
2021/07/17 00:20:10;;;;;;;17.90;7.85;;;19.60;99.90;;;;;;5019240;28;20037;-88
2021/07/17 00:22:36;;;;;;;14.80;6.65;;;19.60;99.90;;;;;;5016199;28;20466;-89
2021/07/17 00:25:05;;;;;;;15.77;6.82;;;19.60;99.90;;;;;;5010983;28;20079;-88
2021/07/17 00:27:30;;;;;;;17.52;7.00;;;19.60;99.90;;;;;;5035177;28;20062;-88
2021/07/17 00:29:56;;;;;;;18.08;7.78;;;19.60;99.90;;;;;;5018627;28;20041;-89
2021/07/17 00:32:22;;;;;;;15.35;7.05;;;19.60;99.90;;;;;;5001985;28;20029;-89
2021/07/17 00:34:48;;;;;;;14.75;7.30;;;19.60;99.90;;;;;;5035009;28;20472;-88
2021/07/17 00:37:13;;;;;;;21.30;7.07;;;19.50;99.90;;;;;;5034417;28;20030;-89
2021/07/17 00:39:39;;;;;;;17.13;7.20;;;19.60;99.90;;;;;;5029007;28;20029;-89
2021/07/17 00:42:05;;;;;;;18.48;7.53;;;19.50;99.90;;;;;;4998747;28;20503;-88
2021/07/17 00:44:30;;;;;;;16.42;7.28;;;19.50;99.90;;;;;;5007247;28;20036;-88
2021/07/17 00:46:58;;;;;;;16.70;7.28;;;19.50;99.90;;;;;;4984715;28;20609;-88
2021/07/17 00:49:28;;;;;;;14.55;7.13;;;19.50;99.90;;;;;;5025870;28;20025;-89
2021/07/17 00:51:54;;;;;;;20.03;7.53;;;19.50;99.90;;;;;;5015530;28;20029;-89
2021/07/17 00:54:24;;;;;;;19.77;8.13;;;19.50;99.90;;;;;;5043772;28;20510;-89
2021/07/17 00:56:51;;;;;;;16.88;7.50;;;19.50;99.90;;;;;;5016049;28;20467;-89
2021/07/17 00:59:21;;;;;;;13.52;6.90;;;19.50;99.90;;;;;;5046534;28;20108;-89
2021/07/17 01:01:52;;;;;;;16.52;7.18;;;19.50;99.90;;;;;;5031864;28;20433;-88
2021/07/17 01:04:18;;;;;;;15.13;6.88;;;19.50;99.90;;;;;;5037025;28;20032;-88
2021/07/17 01:06:45;;;;;;;20.15;7.55;;;19.40;99.90;;;;;;5033701;28;20025;-88
2021/07/17 01:09:10;;;;;;;17.17;7.38;;;19.40;99.90;;;;;;5020549;28;20171;-88
2021/07/17 01:11:37;;;;;;;16.38;7.25;;;19.40;99.90;;;;;;4996970;28;20116;-88
2021/07/17 01:14:04;;;;;;;17.88;7.55;;;19.40;99.90;;;;;;5014153;28;20213;-88
2021/07/17 01:16:31;;;;;;;19.25;7.60;;;19.40;99.90;;;;;;5014611;28;20029;-89
2021/07/17 01:18:56;;;;;;;15.27;6.93;;;19.40;99.90;;;;;;5020296;28;20124;-88
2021/07/17 01:21:41;;;;;;;15.52;6.72;;;19.40;99.90;;;;;;5015118;28;20176;-88
2021/07/17 01:24:07;;;;;;;18.27;7.70;;;19.40;99.90;;;;;;5024435;28;20021;-88
2021/07/17 01:26:32;;;;;;;17.67;7.80;;;19.30;99.90;;;;;;5027488;28;20029;-88
2021/07/17 01:28:58;;;;;;;17.85;7.78;;;19.30;99.90;;;;;;5032468;28;20453;-88
2021/07/17 01:31:24;;;;;;;15.05;7.00;;;19.30;99.90;;;;;;5012649;28;20517;-89
2021/07/17 01:33:53;;;;;;;17.83;7.75;;;19.30;99.90;;;;;;4988314;28;20124;-88
2021/07/17 01:36:18;;;;;;;16.05;7.57;;;19.30;99.90;;;;;;4993843;28;20033;-88
2021/07/17 01:38:44;;;;;;;16.17;7.63;;;19.30;99.90;;;;;;5027514;28;20037;-88
2021/07/17 01:41:10;;;;;;;15.30;6.88;;;19.30;99.90;;;;;;5004360;28;20037;-88
2021/07/17 01:43:36;;;;;;;16.05;7.65;;;19.30;99.90;;;;;;5020736;28;20493;-89
2021/07/17 01:46:02;;;;;;;18.13;7.55;;;19.20;99.90;;;;;;5002374;28;20391;-89
2021/07/17 01:48:28;;;;;;;17.63;7.53;;;19.20;99.90;;;;;;5021031;28;20021;-89
2021/07/17 01:50:54;;;;;;;17.98;8.38;;;19.20;99.90;;;;;;5010978;28;20352;-89
2021/07/17 01:53:21;;;;;;;15.65;7.10;;;19.20;99.90;;;;;;5001648;28;20048;-89
2021/07/17 01:55:46;;;;;;;16.45;7.40;;;19.20;99.90;;;;;;5018133;28;20013;-89
2021/07/17 01:58:12;;;;;;;15.48;8.05;;;19.10;99.90;;;;;;5047150;28;20028;-88
2021/07/17 02:00:38;;;;;;;17.38;6.95;;;19.10;99.90;;;;;;5038256;28;20091;-89
2021/07/17 02:03:07;;;;;;;16.33;7.70;;;19.10;99.90;;;;;;5024661;28;20025;-88
2021/07/17 02:05:33;;;;;;;17.48;7.30;;;19.10;99.90;;;;;;5034533;28;20025;-88
2021/07/17 02:08:00;;;;;;;16.02;8.48;;;19.10;99.90;;;;;;5002286;28;20600;-89
2021/07/17 02:10:31;;;;;;;18.27;7.20;;;19.10;99.90;;;;;;5006168;28;20025;-88
2021/07/17 02:12:59;;;;;;;;;;;19.00;99.90;;;;;;5018337;28;20117;-89
2021/07/17 02:15:26;;;;;;;14.65;6.78;;;19.00;99.90;;;;;;5054105;28;20394;-89
2021/07/17 02:18:26;;;;;;;15.77;6.68;;;19.00;99.90;;;;;;5037553;28;20471;-89
2021/07/17 02:20:52;;;;;;;18.63;7.53;;;19.00;99.90;;;;;;5023840;28;20025;-88
2021/07/17 02:23:18;;;;;;;15.32;7.00;;;19.00;99.90;;;;;;5037474;28;20028;-88
2021/07/17 02:25:44;;;;;;;14.23;7.10;;;19.00;99.90;;;;;;5027229;28;20048;-88
2021/07/17 02:28:10;;;;;;;16.20;7.03;;;18.90;99.90;;;;;;5014348;28;20068;-88
2021/07/17 02:30:36;;;;;;;16.88;7.13;;;18.90;99.90;;;;;;5020571;28;20045;-88
2021/07/17 02:33:02;;;;;;;16.20;7.50;;;18.90;99.90;;;;;;5004826;28;20116;-89
2021/07/17 02:35:28;;;;;;;16.65;7.10;;;18.90;99.90;;;;;;5037158;28;20033;-89
2021/07/17 02:37:53;;;;;;;15.07;6.70;;;18.90;99.90;;;;;;5020717;28;20036;-89
2021/07/17 02:40:19;;;;;;;15.05;6.72;;;18.90;99.90;;;;;;5020829;28;20033;-88
2021/07/17 02:42:45;;;;;;;15.65;7.05;;;18.90;99.90;;;;;;5004134;28;20159;-88
2021/07/17 02:45:12;;;;;;;19.17;8.05;;;18.90;99.90;;;;;;5017221;28;20112;-88
2021/07/17 02:47:38;;;;;;;17.75;7.38;;;18.90;99.90;;;;;;5028094;28;20017;-89
2021/07/17 02:50:06;;;;;;;15.85;7.35;;;18.90;99.90;;;;;;5032551;28;20419;-89
2021/07/17 02:52:32;;;;;;;17.25;7.00;;;18.90;99.90;;;;;;5027539;28;20039;-89
2021/07/17 02:54:57;;;;;;;18.00;7.50;;;18.90;99.90;;;;;;5017121;28;20471;-89
2021/07/17 02:57:23;;;;;;;16.98;6.78;;;18.90;99.90;;;;;;5017006;28;20112;-89
2021/07/17 02:59:48;;;;;;;17.00;7.22;;;18.90;99.90;;;;;;5017091;28;20037;-89
2021/07/17 03:02:14;;;;;;;16.92;7.35;;;18.80;99.90;;;;;;5013404;28;20034;-88
2021/07/17 03:04:40;;;;;;;19.80;7.25;;;18.80;99.90;;;;;;4992668;28;20021;-88
2021/07/17 03:07:06;;;;;;;16.42;7.25;;;18.80;99.90;;;;;;5037780;28;20036;-88
2021/07/17 03:09:31;;;;;;;17.73;7.22;;;18.80;99.90;;;;;;5038044;28;20095;-88
2021/07/17 03:11:58;;;;;;;15.52;6.80;;;18.80;99.90;;;;;;5021113;28;20124;-89
2021/07/17 03:14:23;;;;;;;16.27;7.03;;;18.80;99.90;;;;;;5037630;28;20040;-88
2021/07/17 03:16:49;;;;;;;17.65;7.55;;;18.70;99.90;;;;;;5037915;28;20028;-88
2021/07/17 03:19:15;;;;;;;15.32;6.53;;;18.80;99.90;;;;;;5020965;28;20029;-88
2021/07/17 03:21:41;;;;;;;18.20;6.57;;;18.80;99.90;;;;;;5018114;28;20498;-88
2021/07/17 03:24:06;;;;;;;16.60;7.60;;;18.70;99.90;;;;;;5020055;28;20528;-88
2021/07/17 03:26:32;;;;;;;17.45;7.43;;;18.70;99.90;;;;;;5020349;28;20082;-88
2021/07/17 03:28:58;;;;;;;18.55;7.20;;;18.70;99.90;;;;;;5019791;28;20132;-88
2021/07/17 03:31:28;;;;;;;16.20;7.13;;;18.70;99.90;;;;;;5016674;28;20112;-88
2021/07/17 03:33:56;;;;;;;15.63;7.07;;;18.70;99.90;;;;;;5032169;28;20374;-88
2021/07/17 03:36:22;;;;;;;20.50;7.50;;;18.70;99.90;;;;;;5021549;28;20025;-89
2021/07/17 03:38:48;;;;;;;16.40;6.82;;;18.60;99.90;;;;;;5048628;28;20094;-89
2021/07/17 03:41:13;;;;;;;18.20;6.88;;;18.60;99.90;;;;;;5017466;28;20030;-89
2021/07/17 03:43:39;;;;;;;18.30;7.53;;;18.70;99.90;;;;;;4996673;28;20044;-89
2021/07/17 03:46:05;;;;;;;17.08;7.25;;;18.70;99.90;;;;;;5016854;28;20044;-89
2021/07/17 03:48:30;;;;;;;17.58;7.15;;;18.60;99.90;;;;;;4995213;28;20035;-90
2021/07/17 03:50:56;;;;;;;21.13;6.95;;;18.60;99.90;;;;;;5020560;28;20029;-88
2021/07/17 03:53:22;;;;;;;18.42;7.25;;;18.50;99.90;;;;;;5020255;28;20086;-88
2021/07/17 03:55:47;;;;;;;20.70;7.55;;;18.50;99.90;;;;;;5020307;28;20025;-89
2021/07/17 03:58:13;;;;;;;17.33;7.22;;;18.60;99.90;;;;;;5041493;28;20506;-89
2021/07/17 04:00:39;;;;;;;19.13;7.40;;;18.50;99.90;;;;;;5015317;28;20035;-88
2021/07/17 04:03:05;;;;;;;21.02;7.90;;;18.50;99.90;;;;;;5018666;28;20124;-89
2021/07/17 04:05:31;;;;;;;17.88;7.20;;;18.40;99.90;;;;;;5033711;28;20370;-88
2021/07/17 04:07:57;;;;;;;16.10;7.00;;;18.40;99.90;;;;;;5033832;28;20059;-88
2021/07/17 04:10:23;;;;;;;22.80;8.30;;;18.40;99.90;;;;;;5027141;28;20013;-88
2021/07/17 04:12:49;;;;;;;19.20;8.38;;;18.40;99.90;;;;;;5022165;28;20040;-89
2021/07/17 04:15:15;;;;;;;19.10;7.63;;;18.40;99.90;;;;;;5031576;28;20195;-88
2021/07/17 04:17:41;;;;;;;20.90;8.10;;;18.40;99.90;;;;;;4997578;28;20366;-88
2021/07/17 04:20:08;;;;;;;23.83;8.93;;;18.30;99.90;;;;;;5029082;28;20056;-88
2021/07/17 04:22:35;;;;;;;20.85;7.57;;;18.30;99.90;;;;;;4987793;28;20456;-89
2021/07/17 04:25:02;;;;;;;18.80;7.65;;;18.30;99.90;;;;;;5013410;28;20082;-88
2021/07/17 04:27:28;;;;;;;21.98;7.70;;;18.30;99.90;;;;;;5028737;28;20021;-89
2021/07/17 04:29:54;;;;;;;21.75;7.55;;;18.20;99.90;;;;;;5008090;28;20053;-89
2021/07/17 04:32:19;;;;;;;19.60;7.75;;;18.20;99.90;;;;;;4998827;28;20032;-89
2021/07/17 04:34:45;;;;;;;20.45;7.72;;;18.20;99.90;;;;;;4996683;28;20056;-89
2021/07/17 04:37:18;;;;;;;17.30;7.75;;;18.20;99.90;;;;;;5017821;28;20037;-88
2021/07/17 04:39:44;;;;;;;21.70;7.35;;;18.20;99.90;;;;;;5018617;28;20036;-89
2021/07/17 04:42:10;;;;;;;19.40;7.65;;;18.20;99.90;;;;;;5033712;28;20482;-89
2021/07/17 04:44:36;;;;;;;21.90;8.07;;;18.20;99.90;;;;;;5006219;28;20023;-89
2021/07/17 04:47:03;;;;;;;19.60;7.68;;;18.20;99.90;;;;;;5035007;28;20021;-89
2021/07/17 04:49:28;;;;;;;17.55;7.28;;;18.20;99.90;;;;;;4996703;28;20022;-89
2021/07/17 04:51:54;;;;;;;22.70;8.48;;;18.20;99.90;;;;;;5026624;28;20095;-89
2021/07/17 04:54:20;;;;;;;17.23;7.88;;;18.20;99.90;;;;;;5015095;28;20029;-88
2021/07/17 04:56:45;;;;;;;22.88;8.68;;;18.20;99.90;;;;;;5008103;28;20041;-88
2021/07/17 04:59:11;;;;;;;22.27;8.25;;;18.20;99.90;;;;;;5034524;28;20029;-88
2021/07/17 05:01:36;;;;;;;24.42;8.20;;;18.20;99.90;;;;;;4998575;28;20076;-88
2021/07/17 05:04:02;;;;;;;20.40;7.93;;;18.20;99.90;;;;;;4998584;28;20041;-89
2021/07/17 05:06:28;;;;;;;16.38;7.70;;;18.20;99.90;;;;;;5034428;28;20021;-88
2021/07/17 05:08:54;;;;;;;21.05;7.97;;;18.20;99.90;;;;;;4998518;28;20360;-88
2021/07/17 05:11:19;;;;;;;19.08;7.65;;;18.20;99.90;;;;;;5031589;28;20035;-88
2021/07/17 05:13:45;;;;;;;21.63;8.40;;;18.20;99.90;;;;;;5034404;28;20056;-88
2021/07/17 05:16:11;;;;;;;16.63;7.78;;;18.20;99.90;;;;;;5014950;28;20037;-88
2021/07/17 05:18:36;;;;;;;21.02;7.43;;;18.20;99.90;;;;;;4998388;28;20022;-88
2021/07/17 05:21:02;;;;;;;16.50;7.43;;;18.20;99.90;;;;;;5017939;28;20048;-88
2021/07/17 05:23:28;;;;;;;17.55;8.70;;;18.20;99.90;;;;;;5017787;28;20028;-87
2021/07/17 05:25:54;;;;;;;14.73;7.72;;;18.20;99.90;;;;;;5017923;28;20018;-88
2021/07/17 05:28:22;;;;;;;15.88;7.15;;;18.20;99.90;;;;;;5041796;22;20541;-88
2021/07/17 05:30:47;;;;;;;17.17;7.18;;;18.30;99.90;;;;;;4978269;28;20037;-89
2021/07/17 05:33:13;;;;;;;18.15;7.13;;;18.30;99.90;;;;;;4994997;28;20041;-88
2021/07/17 05:35:39;;;;;;;15.38;6.72;;;18.30;99.90;;;;;;4978769;28;20026;-88
2021/07/17 05:38:05;;;;;;;17.23;7.00;;;18.30;99.90;;;;;;4978887;28;20044;-88
2021/07/17 05:40:31;;;;;;;20.50;7.22;;;18.30;99.90;;;;;;4978855;28;20033;-89
2021/07/17 05:42:56;;;;;;;15.98;7.47;;;18.30;99.90;;;;;;4994917;28;20026;-88
2021/07/17 05:45:22;;;;;;;13.30;6.80;;;18.30;99.90;;;;;;4978946;28;20029;-89
2021/07/17 05:47:48;;;;;;;14.32;6.47;;;18.40;99.90;;;;;;4994509;28;20030;-89
2021/07/17 05:50:14;;;;;;;12.52;6.47;;;18.40;99.90;;;;;;4962665;28;20026;-89
2021/07/17 05:52:40;;;;;;;16.67;7.28;;;18.40;99.90;;;;;;4979016;28;20030;-89
2021/07/17 05:55:06;;;;;;;14.65;6.80;;;18.50;99.90;;;;;;4978941;28;20034;-89
2021/07/17 05:57:32;;;;;;;15.23;6.05;;;18.50;99.90;;;;;;4978614;28;20387;-88
2021/07/17 05:59:59;;;;;;;15.68;6.43;;;18.40;99.90;;;;;;4978497;28;20021;-89
2021/07/17 06:02:25;;;;;;;16.13;6.47;;;18.40;99.90;;;;;;4994685;28;20095;-88
2021/07/17 06:04:51;;;;;;;16.88;6.53;;;18.50;99.90;;;;;;4994746;28;20037;-88
2021/07/17 06:07:17;;;;;;;17.40;6.70;;;18.50;99.90;;;;;;4978291;28;20026;-89
2021/07/17 06:09:44;;;;;;;11.55;5.95;;;18.60;99.90;;;;;;4962463;28;20022;-88
2021/07/17 06:12:10;;;;;;;13.23;5.82;;;18.60;99.90;;;;;;4978705;28;20065;-88
2021/07/17 06:14:37;;;;;;;10.68;5.90;;;18.60;99.90;;;;;;4978689;28;20037;-89
2021/07/17 06:17:04;;;;;;;8.85;5.70;;;18.70;99.90;;;;;;4994587;28;20068;-89
2021/07/17 06:19:30;;;;;;;16.45;7.70;;;18.70;99.90;;;;;;4994743;28;20030;-89
2021/07/17 06:21:56;;;;;;;9.18;5.25;;;18.80;99.90;;;;;;4978406;28;20034;-89
2021/07/17 06:24:22;;;;;;;10.68;5.78;;;18.80;99.90;;;;;;4997293;28;20026;-89
2021/07/17 06:26:47;;;;;;;11.02;5.40;;;18.80;99.90;;;;;;4997798;28;20116;-89
2021/07/17 06:29:13;;;;;;;11.52;5.65;;;18.90;99.90;;;;;;4981829;28;20049;-88
2021/07/17 06:31:39;;;;;;;14.48;5.35;;;18.90;99.90;;;;;;4997973;28;20030;-88
2021/07/17 06:34:05;;;;;;;10.20;4.85;;;19.00;99.90;;;;;;4981665;28;20026;-89
2021/07/17 06:36:31;;;;;;;13.27;5.40;;;19.00;99.90;;;;;;4981721;28;20384;-89
2021/07/17 06:38:56;;;;;;;9.52;5.22;;;19.10;99.90;;;;;;4997459;28;20045;-89
2021/07/17 06:41:23;;;;;;;9.07;4.93;;;19.10;99.90;;;;;;4981745;28;20038;-89
2021/07/17 06:43:49;;;;;;;11.55;5.18;;;19.20;99.90;;;;;;4997923;28;20033;-89
2021/07/17 06:46:14;;;;;;;9.50;4.70;;;19.20;99.90;;;;;;4962626;28;20384;-89
2021/07/17 06:48:40;;;;;;;8.75;4.68;;;19.20;99.90;;;;;;4978797;28;20387;-89
2021/07/17 06:51:08;;;;;;;11.10;4.57;;;19.30;99.90;;;;;;4997526;28;20129;-89
2021/07/17 06:53:37;;;;;;;10.40;4.63;;;19.30;99.90;;;;;;4997653;28;20026;-89
2021/07/17 06:56:03;;;;;;;9.55;4.57;;;19.40;99.90;;;;;;4981697;28;20069;-89
2021/07/17 06:58:29;;;;;;;8.90;4.07;;;19.40;99.90;;;;;;4997367;28;20049;-89
2021/07/17 07:00:55;;;;;;;7.85;3.65;;;19.50;99.90;;;;;;4981361;28;20557;-89
2021/07/17 07:03:21;;;;;;;6.18;3.80;;;19.50;99.90;;;;;;4997166;28;20022;-89
2021/07/17 07:05:47;;;;;;;8.07;4.22;;;19.60;99.90;;;;;;4997481;28;20141;-88
2021/07/17 07:08:12;;;;;;;6.80;4.30;;;19.60;99.90;;;;;;4980606;28;20071;-89
2021/07/17 07:10:38;;;;;;;9.32;4.30;;;19.70;99.90;;;;;;4981338;28;20022;-89
2021/07/17 07:13:09;;;;;;;10.32;4.18;;;19.70;99.90;;;;;;4997346;28;20092;-89
2021/07/17 07:15:38;;;;;;;7.90;3.80;;;19.80;99.90;;;;;;4968403;28;20030;-89
2021/07/17 07:18:05;;;;;;;13.77;4.97;;;19.80;99.90;;;;;;4980998;28;20061;-89
2021/07/17 07:20:30;;;;;;;8.80;3.92;;;19.80;99.90;;;;;;4997679;28;20025;-88
2021/07/17 07:22:56;;;;;;;9.15;3.85;;;19.90;99.90;;;;;;4981016;28;20038;-89
2021/07/17 07:25:22;;;;;;;9.60;4.20;;;19.90;99.90;;;;;;4980762;28;20037;-89
2021/07/17 07:27:48;;;;;;;8.40;4.28;;;20.00;99.90;;;;;;4981069;28;20460;-89
2021/07/17 07:30:15;;;;;;;8.52;3.85;;;20.10;99.90;;;;;;4949400;28;20050;-89
2021/07/17 07:33:18;;;;;;;9.55;3.67;;;20.10;99.90;;;;;;4969118;28;20173;-89
2021/07/17 07:35:44;;;;;;;6.93;3.95;;;20.20;99.90;;;;;;4976468;28;20023;-89
2021/07/17 07:38:09;;;;;;;8.68;3.70;;;20.20;99.90;;;;;;4977613;28;20566;-89
2021/07/17 07:40:35;;;;;;;7.95;3.42;;;20.30;99.90;;;;;;4977501;28;20038;-89
2021/07/17 07:43:01;;;;;;;7.07;3.33;;;20.40;99.90;;;;;;4977158;28;20034;-89
2021/07/17 07:45:27;;;;;;;6.00;3.63;;;20.40;99.90;;;;;;4977319;28;20038;-89
2021/07/17 07:47:52;;;;;;;9.35;3.45;;;20.50;99.90;;;;;;4969493;28;20026;-89
2021/07/17 07:50:20;;;;;;;7.55;3.63;;;20.60;99.90;;;;;;4993358;28;20043;-89
2021/07/17 07:52:45;;;;;;;9.10;3.58;;;20.60;99.90;;;;;;4977112;28;20023;-88
2021/07/17 07:55:11;;;;;;;6.95;2.97;;;20.70;99.90;;;;;;4976921;28;20031;-89
2021/07/17 07:57:37;;;;;;;6.82;3.50;;;20.80;99.90;;;;;;4976884;28;20038;-89
2021/07/17 08:00:08;;;;;;;7.90;3.45;;;20.80;99.90;;;;;;4976985;28;20121;-88
2021/07/17 08:02:34;;;;;;;9.27;3.38;;;20.90;99.90;;;;;;4976870;28;20428;-89
2021/07/17 08:04:59;;;;;;;6.30;2.80;;;21.00;99.90;;;;;;4976642;28;20668;-88
2021/07/17 08:07:25;;;;;;;6.78;3.13;;;21.10;99.90;;;;;;4973231;28;20031;-89
2021/07/17 08:09:51;;;;;;;6.25;3.20;;;21.10;99.90;;;;;;4974685;28;20029;-89
2021/07/17 08:12:17;;;;;;;7.90;3.08;;;21.20;99.90;;;;;;4960642;28;20046;-89
2021/07/17 08:14:43;;;;;;;7.05;2.90;;;21.20;99.90;;;;;;4960741;28;20085;-88
2021/07/17 08:17:10;;;;;;;5.38;2.88;;;21.30;99.90;;;;;;4976648;28;20037;-89
2021/07/17 08:19:35;;;;;;;6.25;2.90;;;21.40;99.90;;;;;;4976568;28;20058;-89
2021/07/17 08:22:02;;;;;;;5.43;2.42;;;21.40;99.90;;;;;;4976595;28;20065;-88
2021/07/17 08:24:27;;;;;;;7.72;3.22;;;21.50;99.90;;;;;;4976198;28;20085;-89
2021/07/17 08:26:53;;;;;;;7.00;2.55;;;21.50;99.90;;;;;;4960191;28;20031;-88
2021/07/17 08:29:19;;;;;;;6.78;2.90;;;21.60;99.90;;;;;;4972493;28;20057;-89
2021/07/17 08:31:45;;;;;;;6.45;3.30;;;21.70;99.90;;;;;;4976264;28;20049;-88
2021/07/17 08:34:10;;;;;;;6.28;3.00;;;21.80;99.90;;;;;;4960277;28;20085;-89
2021/07/17 08:36:36;;;;;;;6.70;2.90;;;21.80;99.90;;;;;;4941190;28;20619;-88
2021/07/17 08:39:03;;;;;;;5.88;2.95;;;21.90;99.90;;;;;;4959715;28;20026;-88
2021/07/17 08:41:34;;;;;;;6.03;2.35;;;22.00;99.90;;;;;;4960061;28;20073;-89
2021/07/17 08:44:00;;;;;;;4.57;2.10;;;22.00;99.90;;;;;;4976168;28;20026;-88
2021/07/17 08:46:26;;;;;;;4.93;2.20;;;22.10;99.90;;;;;;4974141;28;20034;-88
2021/07/17 08:48:54;;;;;;;4.32;2.17;;;22.20;99.90;;;;;;4993626;28;20093;-88
2021/07/17 08:51:21;;;;;;;5.15;2.03;;;22.20;99.90;;;;;;4960350;28;20023;-89
2021/07/17 08:53:48;;;;;;;4.97;2.20;;;22.30;99.90;;;;;;4973946;28;20485;-88
2021/07/17 08:56:15;;;;;;;3.88;2.25;;;22.40;99.90;;;;;;4976448;28;20487;-88
2021/07/17 08:58:41;;;;;;;5.85;2.20;;;22.40;99.90;;;;;;4993745;28;20168;-89
2021/07/17 09:01:07;;;;;;;4.03;2.08;;;22.50;99.90;;;;;;4956186;28;20165;-86
2021/07/17 09:03:32;;;;;;;3.45;1.73;;;22.60;99.90;;;;;;4993189;28;20472;-88
2021/07/17 09:05:58;;;;;;;2.63;1.70;;;22.60;99.90;;;;;;4976227;28;20053;-88
2021/07/17 09:08:24;;;;;;;2.97;1.80;;;22.70;99.90;;;;;;4956814;28;20110;-86
2021/07/17 09:10:54;;;;;;;4.88;2.10;;;22.80;99.90;;;;;;4959783;28;20472;-88
2021/07/17 09:13:20;;;;;;;;;;;22.80;99.90;;;;;;4960095;28;20561;-88
2021/07/17 09:15:48;;;;;;;3.80;1.60;;;22.90;99.90;;;;;;4976795;28;19906;-88
2021/07/17 09:18:26;;;;;;;2.78;1.80;;;23.00;99.90;;;;;;4973717;28;20027;-88
2021/07/17 09:21:26;;;;;;;4.55;1.90;;;23.00;99.90;;;;;;4977206;28;20026;-88
2021/07/17 09:24:12;;;;;;;5.17;1.83;;;23.10;99.90;;;;;;4973401;28;20141;-89
2021/07/17 09:26:50;;;;;;;3.08;1.60;;;23.20;99.90;;;;;;4975027;28;20033;-88
2021/07/17 09:29:16;;;;;;;3.92;1.60;;;23.20;99.90;;;;;;4983334;28;20531;-88
2021/07/17 09:31:54;;;;;;;3.42;1.63;;;23.30;99.90;;;;;;4999203;28;20097;-85
2021/07/17 09:34:23;;;;;;;4.97;1.75;;;23.40;99.90;;;;;;4996613;28;20022;-84
2021/07/17 09:37:12;;;;;;;4.00;1.65;;;23.40;99.90;;;;;;4983465;28;20038;-85
2021/07/17 09:39:44;;;;;;;5.28;1.77;;;23.50;99.90;;;;;;4974880;28;20113;-87
2021/07/17 09:42:13;;;;;;;3.08;1.58;;;23.60;99.70;;;;;;4974753;28;20031;-87
2021/07/17 09:44:40;;;;;;;3.38;1.50;;;23.60;99.60;;;;;;4974967;28;20049;-86
2021/07/17 09:47:17;;;;;;;3.13;1.55;;;23.70;99.60;;;;;;4975212;28;20088;-86
2021/07/17 09:49:42;;;;;;;3.78;1.52;;;23.70;99.30;;;;;;4974991;28;20027;-86
2021/07/17 09:52:14;;;;;;;3.53;1.50;;;23.80;99.30;;;;;;4974767;28;20384;-87
2021/07/17 09:55:00;;;;;;;5.00;1.67;;;23.80;99.10;;;;;;4975022;28;20049;-86
2021/07/17 09:57:29;;;;;;;3.47;1.77;;;23.90;98.70;;;;;;4975453;28;20490;-86
2021/07/17 10:00:05;;;;;;;3.13;1.75;;;23.90;98.50;;;;;;5004825;28;20021;-86
2021/07/17 10:02:31;;;;;;;3.80;1.58;;;24.00;98.30;;;;;;4990900;28;20038;-85
2021/07/17 10:04:57;;;;;;;3.97;1.88;;;24.00;98.40;;;;;;4964321;28;20023;-86
2021/07/17 10:07:22;;;;;;;3.75;1.75;;;24.10;98.40;;;;;;4963422;28;20062;-85
2021/07/17 10:09:51;;;;;;;3.10;1.40;;;24.10;98.20;;;;;;4980791;28;20531;-85
2021/07/17 10:12:29;;;;;;;1.73;1.20;;;24.20;98.20;;;;;;5001614;28;20030;-87
2021/07/17 10:14:55;;;;;;;2.58;1.40;;;24.20;98.20;;;;;;4984531;28;20061;-87
2021/07/17 10:17:35;;;;;;;3.92;1.50;;;24.30;97.90;;;;;;4959407;28;20519;-87
2021/07/17 10:20:11;;;;;;;2.33;1.30;;;24.30;97.70;;;;;;4986128;28;20034;-88
2021/07/17 10:22:38;;;;;;;2.22;1.35;;;24.40;97.70;;;;;;4994075;28;20034;-87
2021/07/17 10:25:05;;;;;;;3.45;1.25;;;24.50;97.70;;;;;;4977935;28;20022;-86
2021/07/17 10:27:31;;;;;;;3.08;1.30;;;24.50;97.50;;;;;;4977920;28;20026;-87
2021/07/17 10:29:57;;;;;;;3.00;1.40;;;24.60;97.40;;;;;;4968690;28;20404;-87
2021/07/17 10:32:23;;;;;;;4.38;1.50;;;24.60;97.40;;;;;;4960421;28;20030;-87
2021/07/17 10:34:50;;;;;;;3.60;1.35;;;24.70;97.50;;;;;;4977635;28;20185;-86
2021/07/17 10:37:26;;;;;;;3.42;1.20;;;24.70;97.10;;;;;;4977837;28;20049;-87
2021/07/17 10:39:57;;;;;;;3.08;1.70;;;24.80;97.00;;;;;;4978203;28;20034;-86
2021/07/17 10:42:24;;;;;;;4.28;1.80;;;24.80;96.90;;;;;;4977745;28;20030;-86
2021/07/17 10:44:54;;;;;;;4.22;1.50;;;24.90;97.00;;;;;;4977949;28;20076;-86
2021/07/17 10:47:20;;;;;;;2.45;1.20;;;24.90;96.70;;;;;;4994503;28;20023;-87
2021/07/17 10:49:47;;;;;;;2.53;1.20;;;25.00;96.70;;;;;;4960327;28;20022;-88
2021/07/17 10:52:13;;;;;;;3.10;1.30;;;25.10;96.60;;;;;;4994984;28;20033;-88
2021/07/17 10:54:39;;;;;;;3.08;1.30;;;25.10;96.40;;;;;;4977462;28;20030;-86
2021/07/17 10:57:06;;;;;;;2.17;1.40;;;25.20;96.30;;;;;;4984495;28;20018;-86
2021/07/17 10:59:31;;;;;;;2.17;1.23;;;25.30;96.20;;;;;;4960983;28;20172;-85
2021/07/17 11:01:57;;;;;;;2.15;1.10;;;25.30;95.80;;;;;;4995944;28;20101;-86
2021/07/17 11:04:45;;;;;;;3.83;1.30;;;25.30;95.50;;;;;;4979563;28;20037;-86
2021/07/17 11:07:32;;;;;;;3.85;1.35;;;25.30;94.60;;;;;;4978259;28;20026;-86
2021/07/17 11:10:13;;;;;;;2.78;1.35;;;25.40;94.60;;;;;;4981238;28;20427;-86
2021/07/17 11:12:46;;;;;;;2.20;1.10;;;25.50;94.90;;;;;;4995168;28;20021;-85
2021/07/17 11:15:11;;;;;;;3.15;1.30;;;25.50;94.70;;;;;;4977267;28;20030;-85
2021/07/17 11:17:44;;;;;;;3.25;1.60;;;25.50;94.70;;;;;;4980683;28;20449;-86
2021/07/17 11:20:22;;;;;;;3.00;1.45;;;25.60;94.40;;;;;;4979412;28;20468;-86
2021/07/17 11:23:01;;;;;;;3.72;1.38;;;25.60;94.00;;;;;;4995738;28;20121;-86
2021/07/17 11:25:26;;;;;;;3.50;1.25;;;25.70;94.20;;;;;;4979538;28;20092;-86
2021/07/17 11:27:52;;;;;;;3.35;1.35;;;25.80;94.40;;;;;;4963659;28;20424;-86
2021/07/17 11:30:19;;;;;;;2.63;1.13;;;25.80;94.10;;;;;;5031944;23;20077;-80
2021/07/17 11:33:14;;;;;;;3.28;1.15;;;25.90;94.00;;;;;;5036206;28;20025;-82
2021/07/17 11:35:42;;;;;;;1.92;1.10;;;25.90;93.70;;;;;;4995431;28;20029;-81
2021/07/17 11:38:12;;;;;;;2.55;1.38;;;26.00;93.90;;;;;;5018531;28;20025;-86
2021/07/17 11:40:41;;;;;;;2.22;1.20;;;26.10;93.80;;;;;;5014296;28;20026;-86
2021/07/17 11:43:09;;;;;;;3.08;1.20;;;26.10;93.80;;;;;;5014540;28;20040;-83
2021/07/17 11:45:41;;;;;;;3.25;1.30;;;26.20;93.30;;;;;;5017571;28;20018;-84
2021/07/17 11:48:09;;;;;;;1.85;1.27;;;26.20;93.00;;;;;;5011692;28;20360;-83
2021/07/17 11:50:42;;;;;;;2.53;1.20;;;26.30;93.00;;;;;;5020915;28;20011;-84
2021/07/17 11:53:16;;;;;;;1.83;1.23;;;26.30;93.00;;;;;;4994939;28;20047;-84
2021/07/17 11:55:57;;;;;;;2.47;1.10;;;26.40;92.80;;;;;;5004755;28;20479;-85
2021/07/17 11:58:23;;;;;;;2.53;1.48;;;26.50;92.50;;;;;;5000214;28;20075;-84
2021/07/17 12:01:07;;;;;;;2.80;1.40;;;26.50;92.80;;;;;;5011645;28;20045;-85
2021/07/17 12:03:32;;;;;;;2.05;1.17;;;26.60;92.50;;;;;;4997708;28;20042;-84
2021/07/17 12:06:01;;;;;;;2.65;1.25;;;26.60;92.40;;;;;;4989993;28;20095;-84
2021/07/17 12:08:26;;;;;;;3.10;1.30;;;26.70;92.70;;;;;;4994410;28;20032;-84
2021/07/17 12:10:57;;;;;;;2.70;1.35;;;26.70;92.20;;;;;;5005899;28;20116;-84
2021/07/17 12:13:24;;;;;;;2.75;1.35;;;26.80;91.90;;;;;;4978580;28;20033;-84
2021/07/17 12:15:57;;;;;;;3.35;1.52;;;26.80;91.40;;;;;;4984025;28;20403;-84
2021/07/17 12:18:26;;;;;;;10.73;1.95;;;26.80;91.20;;;;;;5001559;28;20041;-83
2021/07/17 12:20:53;;;;;;;7.05;1.60;;;26.90;91.20;;;;;;5015748;28;20536;-83
2021/07/17 12:23:20;;;;;;;3.53;1.55;;;26.90;91.40;;;;;;4997969;28;20041;-84
2021/07/17 12:25:49;;;;;;;2.50;1.20;;;27.00;91.40;;;;;;4967448;28;20034;-84
2021/07/17 12:28:35;;;;;;;4.30;1.42;;;27.10;91.40;;;;;;5009492;28;20511;-83
2021/07/17 12:31:10;;;;;;;1.90;1.23;;;27.10;91.10;;;;;;5032932;28;20040;-84
2021/07/17 12:33:39;;;;;;;2.45;1.33;;;27.20;91.10;;;;;;5036263;28;20017;-83
2021/07/17 12:36:19;;;;;;;3.92;1.67;;;27.20;90.90;;;;;;5022782;28;20426;-84
2021/07/17 12:38:48;;;;;;;;;;;27.30;91.00;;;;;;5027129;28;20135;-84
2021/07/17 12:41:18;;;;;;;3.83;1.40;;;27.30;90.40;;;;;;5023643;28;19913;-84
2021/07/17 12:43:47;;;;;;;4.78;1.60;;;27.40;90.90;;;;;;5036106;28;20021;-85
2021/07/17 12:46:19;;;;;;;3.33;1.27;;;27.40;90.40;;;;;;5021255;28;20028;-83